Terminal Aerodrome Forecast
Issued by NWS Sterling, VA

Current Version | Previous Version | Text Only | Print | Product List | Glossary Off
Versions: 1 2 3 4 5 6 7 8 9 10 11 12 13 14 15 16 17 18 19 20 21 22 23 24

000
FTUS41 KLWX 262004 AAB
TAFIAD
TAF AMD
KIAD 262004Z 2620/2724 33008KT P6SM SCT030 BKN090
     FM262300 VRB03KT P6SM BKN025
     FM270500 34005KT 5SM -SHSN OVC015
     FM270800 34005KT P6SM OVC025
     FM271500 34010G18KT P6SM BKN035
     FM272200 34009KT P6SM SCT040=

USA.gov is the U.S. government's official web portal to all federal, state and local government web resources and services.